Presidente Epitacio, Brazil
Current Conditions -  °F | °C
As of 8:00 AM on Saturday 22 Nov 2014 (Local Time) from SBMG Reporting Station
Broken Clouds Broken Clouds  
Wind Chill: 66°   Ceiling: 10000
Heat Index: 66°   Visibility: 6mi
Dew Point: 66°   Wind: 10mph
Humidity: 100%   Direction: 110°ESE
Pressure: 29.94"   Gusts: NA
Location:  21.76°S, 52.12°W
Report Text: SBMG 221000Z 11009KT 9999 SCT005 BKN100 19/19 Q1014 RERA
Loading
Personal Weather Stations






























Interactive Weather Map New forecast layout! Learn more

10-Day Weather Forecast

Advertisements
Track Severe Weather on mobile